Etusivu
METAR-TAF:

METAR-TAF

Lentoasemat :

Iringa, Tansania

Leveyspiiri: 07-40S, Pituuspiiri: 035-45E, korkeus merenpinnasta: 1426 m

Tämänhetkinen sää

Tämä raportti tehtiin 1 tunti ja 5 minuuttia sitten, kello 05.00 UTC
Tuuli 9 kn etelästä
Lämpötila 16°C
Kosteus 68%
Ilmanpaine 1024 hPa
Näkyvyys 10 km tai enemmän
Muutamia pilviä 1900 ft:n korkeudessa

METAR: HTIR 290500Z 19009KT 9999 FEW019 16/10 Q1024

Aika: 09:05 (06:05 UTC)


TAF: puuttuu

Säähavainnot ja -ennusteet yli 4000 lentoasemalta (METAR- ja TAF-raportit).

Käytössä olevat sääasemat on merkitty karttaan keltaisilla ja punaisilla pisteillä.

Aseta hiiri pisteen päälle nähdäksesi sääaseman nimen.

Klikkaa sitten nähdäksesi säähavainnot ja -ennusteet.

Kartan vaihtaminen: klikkaa mustalla rastilla varustettuja vihreitä pisteitä, niin voit zoomata sisään; viivalla varustettua vihreää pistettä, niin voit zoomata ulos tai vihreitä nuolia, niin pääset viereisille kartoille.


METAR-TAF: